Tiempo atmosférico en la estación meteorológica de Zarza La Mayor, Cáceres (336 m.)



Fecha
DESCASC
Temp. máxima en grados centígrados (hora)
DESCASC
Temp. mínima en grados centígrados (hora)
DESCASC
Temp. media en grados centígrados
DESCASC
Racha de viento máxima en m/sg (hora)
DESCASC
Velocidad máxima media en intervalos de 10 minutos(hora)
DESCASC
Precipitaciones diarias en mm
DESCASC
Precipitaciones de 00:00 a 06:00 en mm
DESCASC
Precipitaciones de 06:00 a 12:00 en mm
DESCASC
Precipitaciones de 12:00 a 18:00 en mm
DESCASC
Precipitaciones de 18:00 a 24:00 en mm
DESCASC
05-04-2020 16.4 (17:50) 11.7 (08:30) 14 10.28 (19:30) 6.67 (19:30) 7.6 0 0 5.4 2.2
04-04-2020 17.8 (14:30) 8.7 (07:30) 13.2 10.56 (14:20) 6.11 (14:40) 0 0 0 0 0
03-04-2020 19.8 (17:00) 7.2 (07:10) 13.5 5.83 (18:20) 3.61 (11:00) 0 0 0 0 0
02-04-2020 17.8 (16:10) 5.9 (00:00) 11.8 7.78 (00:20) 5 (00:10) 2.4 2.4 0 0 0
01-04-2020 13.9 (17:20) 1.8 (00:00) 7.8 8.61 (23:50) 5.28 (23:50) 0.6 0 0 0.2 0.4
31-03-2020 10.7 (19:40) 3.2 (00:00) 6.9 11.67 (01:30) 7.5 (01:30) 12.4 1 9.2 1.8 0.4
30-03-2020 11.8 (00:00) 4.8 (00:00) 8.3 14.72 (20:20) 7.22 (21:30) 0.2 0 0 0 0.2
29-03-2020 19.7 (17:00) 5.7 (00:00) 12.7 7.5 (20:20) 3.89 (20:20) 0 0 0 0 0
28-03-2020 17.6 (17:20) 5.6 (00:00) 11.6 11.11 (11:30) 6.39 (11:30) 0 0 0 0 0
27-03-2020 14.7 (15:10) 4.8 (00:00) 9.8 9.17 (10:20) 5.83 (10:40) 0 0 0 0 0
26-03-2020 21.2 (17:00) 7.2 (00:00) 14.2 8.89 (18:30) 6.11 (18:10) 0 0 0 0 0
25-03-2020 20.7 (15:50) 7.8 (00:00) 14.3 8.89 (18:00) 6.11 (18:00) 0 0 0 0 0
24-03-2020 18.3 (16:40) 10.7 (00:00) 14.5 14.72 (12:30) 8.89 (12:40) 0 0 0 0 0
23-03-2020 16.9 (15:30) 8.3 (00:00) 12.6 10.83 (16:30) 6.67 (16:30) 0.2 0.2 0 0 0
22-03-2020 17.6 (17:00) 5.4 (06:30) 11.5 10.28 (20:30) 6.39 (20:30) 1.6 0 0 0 1.6
21-03-2020 12.6 (14:10) 7.9 (00:00) 10.3 7.22 (15:20) 4.44 (15:30) 21.4 17.6 2.4 1.4 0
20-03-2020 13.2 (00:20) 9.7 (00:00) 11.4 7.78 (11:10) 5 (11:30) 41.6 0 17.6 7.6 16.4
19-03-2020 17.1 (16:10) 10.6 (00:00) 13.9 10.56 (12:00) 6.39 (12:00) 0 0 0 0 0
18-03-2020 19.8 (14:40) 12 (00:00) 15.9 13.89 (12:10) 8.06 (11:50) 0 0 0 0 0
17-03-2020 16.9 (16:30) 3.7 (00:00) 10.3 13.61 (11:40) 7.78 (11:40) 0 0 0 0 0
16-03-2020 11.2 (13:10) 4.3 (00:00) 7.8 12.78 (09:40) 7.78 (11:00) 3.2 0 0 0.2 3
15-03-2020 21 (14:20) 6.6 (00:00) 13.8 13.61 (20:30) 9.17 (15:10) 0 0 0 0 0
14-03-2020 23.9 (15:50) 10 (00:00) 16.9 4.17 (11:50) 2.5 (02:30) 0 0 0 0 0
13-03-2020 22.2 (15:50) 8.4 (08:00) 15.3 5.28 (15:50) 3.61 (17:20) 0 0 0 0 0
12-03-2020 24.8 (16:20) 11.5 (00:00) 18.1 4.17 (20:50) 3.33 (05:00) -- 0 0 -- 0
11-03-2020 23.4 (14:10) 9.2 (00:00) 16.3 3.89 (12:40) 2.5 (05:40) 0 0 0 0 0

Gráficas

Temp. máximas Temp. mínimas Temp. medias Precipitaciones Rachas de viento máximas Velocidades máximas media en intervalos de 10 minutos

Datos horarios

Fecha y hora oficial Temperatura (ºC) Velocidad del viento (km/h) Dirección del viento Racha (km/h) Dirección de racha Precipitación (mm) Presión (hPa) Tendencia (hPa) Humedad (%)
2020-04-09 23:00:00 13.7 8 Este 14 Este 0 -- -- 96
2020-04-09 22:00:00 14.1 4 Este 10 Este 0 -- -- 96
2020-04-09 21:00:00 14.3 5 Este 6 Este 0.4 -- -- 96
2020-04-09 20:00:00 14.4 4 Este 6 Sudeste 0.4 -- -- 95
2020-04-09 19:00:00 14.5 3 Nordeste 8 Nordeste 0 -- -- 96
2020-04-09 18:00:00 14.1 5 Nordeste 10 Norte 0 -- -- 96
2020-04-09 17:00:00 14.2 6 Norte 10 Nordeste 1.4 -- -- 96
2020-04-09 16:00:00 14.5 5 Este 9 Este 0.8 -- -- 95
2020-04-09 15:00:00 14.8 3 Nordeste 9 Nordeste 2.8 -- -- 96
2020-04-09 14:00:00 14.3 5 Norte 14 Oeste 4 -- -- 96
2020-04-09 13:00:00 14.4 8 Oeste 21 Sudoeste 0.6 -- -- 94
2020-04-09 12:00:00 14.7 5 Oeste 20 Oeste 0.4 -- -- 92
2020-04-09 11:00:00 15.7 0 Calma 5 Sudoeste 0.8 -- -- 95
2020-04-09 10:00:00 15.3 5 Sur 8 Oeste 0.6 -- -- 96
2020-04-09 09:00:00 15.1 4 Noroeste 6 Norte 0.2 -- -- 96
2020-04-09 08:00:00 15.2 4 Norte 7 Sudoeste 0.2 -- -- 96
2020-04-09 07:00:00 15.3 3 Oeste 8 Sudoeste 0 -- -- 95
2020-04-09 06:00:00 15.2 5 Oeste 6 Sudoeste 0 -- -- 95
2020-04-09 05:00:00 15.3 3 Sudoeste 9 Sudoeste 0 -- -- 93
2020-04-09 04:00:00 15.4 4 Sudoeste 12 Sudoeste 0 -- -- 93
2020-04-09 03:00:00 15.6 8 Sudoeste 11 Sudoeste 0 -- -- 91
2020-04-09 02:00:00 15.7 5 Sudoeste 13 Sudoeste 0 -- -- 92
2020-04-09 01:00:00 16 3 Sudoeste 8 Sudoeste 0 -- -- 89
2020-04-09 00:00:00 16.3 5 Sudoeste 8 Sudoeste 0 -- -- 88
2020-04-08 23:00:00 17 3 Oeste 6 Noroeste 0.4 -- -- 85
2020-04-08 22:00:00 17.4 3 Noroeste 10 Oeste 0 -- -- 81
2020-04-08 21:00:00 18.2 4 Oeste 19 Sudoeste 0 -- -- 80
2020-04-08 20:00:00 19.8 9 Sudoeste 12 Sudoeste 0 -- -- 71
2020-04-08 19:00:00 21.3 3 Sudoeste 6 Sudeste 0 -- -- 63
2020-04-08 18:00:00 21.5 5 Sudeste 11 Sudoeste 0 -- -- 59
2020-04-08 17:00:00 22.3 4 Sur 13 Sudeste 0 -- -- 59
2020-04-08 16:00:00 21.2 5 Sudeste 13 Este 0 -- -- 60
2020-04-08 15:00:00 20.9 4 Este 14 Nordeste 0 -- -- 68
2020-04-08 14:00:00 20.4 6 Sudeste 17 Este 0 -- -- 73
2020-04-08 13:00:00 19.2 6 Este 18 Nordeste 0 -- -- 79
2020-04-08 12:00:00 17.9 9 Nordeste 17 Nordeste 0 -- -- 84
2020-04-08 11:00:00 16.3 8 Nordeste 14 Este 0 -- -- 89
2020-04-08 10:00:00 14 6 Nordeste 11 Nordeste 0 -- -- 97
2020-04-08 09:00:00 12.6 5 Nordeste 9 Nordeste 0 -- -- 98
2020-04-08 08:00:00 11.5 5 Este 9 Este 0 -- -- 97
2020-04-08 07:00:00 12.5 6 Nordeste 9 Nordeste 0 -- -- 97
2020-04-08 06:00:00 12.1 3 Nordeste 8 Este 0 -- -- 96
2020-04-08 05:00:00 12.8 2 Nordeste 6 Este 0 -- -- 94
2020-04-08 04:00:00 13.1 5 Este 8 Este 0 -- -- 95
2020-04-08 03:00:00 13.2 2 Nordeste 9 Este 0 -- -- 93
2020-04-08 02:00:00 14.2 8 Sudeste 13 Sudeste 0 -- -- 89
2020-04-08 01:00:00 14.2 5 Sudeste 9 Sudeste 0 -- -- 90
2020-04-08 00:00:00 14.8 9 Sudeste 10 Este 0 -- -- 89
2020-04-07 23:00:00 15.3 7 Sudeste 15 Sudeste 0 -- -- 86
2020-04-07 22:00:00 16.2 12 Sudeste 15 Sudeste 0 -- -- 84
2020-04-07 21:00:00 16.7 10 Sudeste 15 Sudeste 0 -- -- 81
2020-04-07 20:00:00 18.6 9 Sudeste 19 Sudeste 0 -- -- 75
2020-04-07 19:00:00 19.4 15 Sudeste 24 Sur 0 -- -- 70
2020-04-07 18:00:00 20.3 14 Sudeste 27 Sudeste 0 -- -- 72
2020-04-07 17:00:00 19.6 18 Sudeste 30 Sudeste 0 -- -- 77
2020-04-07 16:00:00 18.4 19 Sur 31 Sur 0.2 -- -- 80
2020-04-07 15:00:00 18.8 19 Sur 31 Sur 0 -- -- 79
2020-04-07 14:00:00 18 10 Sur 21 Sudeste 0 -- -- 87
2020-04-07 13:00:00 15.6 12 Sur 19 Sudoeste 0.2 -- -- 95
2020-04-07 12:00:00 15.1 9 Sudeste 15 Sudeste 0 -- -- 96
2020-04-07 11:00:00 14.4 9 Sudeste 19 Este 0 -- -- 98
2020-04-07 10:00:00 14 13 Este 23 Este 0 -- -- 98
2020-04-07 09:00:00 13.4 10 Este 17 Este 0.2 -- -- 98
2020-04-07 08:00:00 13 11 Este 23 Este 0.4 -- -- 97
2020-04-07 07:00:00 12.9 17 Este 24 Este 0.2 -- -- 97
2020-04-07 06:00:00 13 16 Este 26 Sudeste 0 -- -- 97
2020-04-07 05:00:00 13.2 10 Este 19 Este 0 -- -- 97
2020-04-07 04:00:00 13.2 7 Este 21 Este 0.2 -- -- 97
2020-04-07 03:00:00 13.2 9 Este 24 Este 2.8 -- -- 97
2020-04-07 02:00:00 13.3 15 Este 23 Este 0.4 -- -- 97
2020-04-07 01:00:00 13.4 12 Este 19 Este 3.4 -- -- 97
2020-04-07 00:00:00 12.8 3 Norte 18 Sudeste 0.2 -- -- 96
2020-04-06 23:00:00 13.2 11 Sudeste 20 Sudeste 0.8 -- -- 95
2020-04-06 22:00:00 13.6 8 Sudeste 12 Sudeste 0.6 -- -- 94
2020-04-06 21:00:00 13.9 3 Sudeste 17 Sudeste 1.8 -- -- 94
2020-04-06 20:00:00 14.5 10 Sudeste 20 Sur 0.6 -- -- 92
2020-04-06 19:00:00 15.6 14 Sur 21 Sur 0 -- -- 85
2020-04-06 18:00:00 15.7 8 Sudeste 13 Sudeste 0 -- -- 84
2020-04-06 17:00:00 15.4 6 Sur 21 Sur 0.4 -- -- 85
2020-04-06 16:00:00 16.5 14 Sur 23 Sur 0 -- -- 73
2020-04-06 15:00:00 16 3 Sudeste 9 Nordeste 0 -- -- 81
2020-04-06 14:00:00 15.5 5 Este 14 Este 0 -- -- 82
2020-04-06 13:00:00 14.4 5 Este 10 Este 0 -- -- 84
2020-04-06 12:00:00 13.2 2 Sudeste 8 Este 0 -- -- 91
2020-04-06 11:00:00 12.5 4 Este 9 Sudeste 0 -- -- 95
2020-04-06 10:00:00 11.4 4 Sudeste 10 Sudeste 0 -- -- 97
2020-04-06 09:00:00 10.8 4 Este 8 Este 0 -- -- 97
2020-04-06 08:00:00 10.6 0 Calma 12 Sur 0 -- -- 96
2020-04-06 07:00:00 11.1 7 Sur 17 Sudoeste 0 -- -- 96
2020-04-06 06:00:00 11.4 12 Sudoeste 23 Sudoeste 0 -- -- 96
2020-04-06 05:00:00 11.6 15 Sudoeste 23 Sudoeste 0 -- -- 95
2020-04-06 04:00:00 12.8 13 Sudoeste 23 Sudoeste 0 -- -- 94
2020-04-06 03:00:00 13 11 Sur 23 Sur 0 -- -- 94
2020-04-06 02:00:00 13.9 17 Sur 25 Sur 0 -- -- 94
2020-04-06 01:00:00 14.1 15 Sur 23 Sur 0 -- -- 95
2020-04-06 00:00:00 14.1 17 Sudeste 31 Sur 0 -- -- 95
2020-04-05 23:00:00 14.1 20 Sudeste 32 Sudeste 0 -- -- 95
2020-04-05 22:00:00 14.2 17 Sudeste 33 Sur 0 -- -- 95
2020-04-05 21:00:00 14.4 14 Sudeste 24 Sudeste 0.2 -- -- 95
2020-04-05 20:00:00 14.4 17 Sudeste 37 Sur 1.6 -- -- 93
2020-04-05 19:00:00 15.5 21 Sur 35 Sudeste 0.4 -- -- 86
2020-04-05 18:00:00 16.4 21 Sur 32 Sur 0 -- -- 80
2020-04-05 17:00:00 16 19 Sur 29 Sur 0.2 -- -- 83
2020-04-05 16:00:00 15.4 12 Sudeste 19 Este 0 -- -- 89
2020-04-05 15:00:00 14.5 12 Este 19 Este 2.6 -- -- 93
2020-04-05 14:00:00 13.6 8 Sudeste 26 Sudeste 2.2 -- -- 89
2020-04-05 13:00:00 14.8 13 Sudeste 28 Sudeste 0.4 -- -- 86
2020-04-05 12:00:00 14 14 Sudeste 32 Sudeste 0 -- -- 77
2020-04-05 11:00:00 13.1 19 Sudeste 33 Sudeste 0 -- -- 74
2020-04-05 10:00:00 12.3 16 Este 26 Este 0 -- -- 78
2020-04-05 09:00:00 11.8 11 Este 21 Este 0 -- -- 80
2020-04-05 08:00:00 11.8 10 Este 19 Este 0 -- -- 83
2020-04-05 07:00:00 12.1 9 Este 15 Este 0 -- -- 81
2020-04-05 06:00:00 12 8 Sudeste 15 Este 0 -- -- 81
2020-04-05 05:00:00 12.1 9 Este 17 Este 0 -- -- 80
2020-04-05 04:00:00 12.2 10 Este 16 Sudeste 0 -- -- 79
2020-04-05 03:00:00 12.5 10 Este 15 Este 0 -- -- 77
2020-04-05 02:00:00 13 8 Sudeste 18 Este 0 -- -- 75
2020-04-05 01:00:00 13.1 9 Sudeste 15 Sudeste 0 -- -- 77
2020-04-05 00:00:00 13.3 9 Sudeste 15 Sudeste 0 -- -- 76
2020-04-04 23:00:00 13.4 10 Este 15 Sudeste 0 -- -- 77
2020-04-04 22:00:00 13.9 9 Sur 15 Sur 0 -- -- 70
2020-04-04 21:00:00 14.9 9 Sur 24 Sur 0 -- -- 64
2020-04-04 20:00:00 16 16 Sur 25 Sur 0 -- -- 57
2020-04-04 19:00:00 16.9 10 Sudeste 27 Sudeste 0 -- -- 55
2020-04-04 18:00:00 17.8 20 Sudeste 34 Sudeste 0 -- -- 48
2020-04-04 17:00:00 17.4 21 Sudeste 37 Sudeste 0 -- -- 47
2020-04-04 16:00:00 17.6 19 Sudeste 34 Sudeste 0 -- -- 53
2020-04-04 15:00:00 17.5 19 Sudeste 38 Sudeste 0 -- -- 48
2020-04-04 14:00:00 17.2 19 Sudeste 31 Sudeste 0 -- -- 53
2020-04-04 13:00:00 15.7 15 Este 29 Este 0 -- -- 65
2020-04-04 12:00:00 15.8 18 Este 27 Este 0 -- -- 61
2020-04-04 11:00:00 14.3 13 Nordeste 26 Este 0 -- -- 64
2020-04-04 10:00:00 12.4 10 Nordeste 15 Nordeste 0 -- -- 66
2020-04-04 09:00:00 10.2 9 Este 17 Este 0 -- -- 71
2020-04-04 08:00:00 9.7 9 Este 20 Este 0 -- -- 73
2020-04-04 07:00:00 9.3 8 Este 15 Este 0 -- -- 76
2020-04-04 06:00:00 9.6 9 Este 19 Este 0 -- -- 74
2020-04-04 05:00:00 9.3 13 Este 16 Este 0 -- -- 76
2020-04-04 04:00:00 9.9 10 Este 17 Este 0 -- -- 76
2020-04-04 03:00:00 10 11 Este 18 Este 0 -- -- 77
2020-04-04 02:00:00 10.8 7 Este 11 Este 0 -- -- 72
2020-04-04 01:00:00 11.4 0 Calma 13 Este 0 -- -- 70
2020-04-04 00:00:00 13.2 10 Este 12 Este 0 -- -- 61
2020-04-03 23:00:00 13.8 5 Este 8 Este 0 -- -- 60
2020-04-03 22:00:00 14.9 8 Este 9 Este 0 -- -- 56
2020-04-03 21:00:00 16.3 6 Este 9 Este 0 -- -- 52
2020-04-03 20:00:00 18.2 5 Este 13 Este 0 -- -- 46
2020-04-03 19:00:00 19.4 5 Este 21 Este 0 -- -- 43
2020-04-03 18:00:00 19.5 6 Este 19 Este 0 -- -- 39
2020-04-03 17:00:00 19.8 8 Sudeste 18 Este 0 -- -- 47
2020-04-03 16:00:00 19.4 6 Sudeste 17 Este 0 -- -- 48
2020-04-03 15:00:00 18.5 10 Este 20 Este 0 -- -- 48
2020-04-03 14:00:00 18.1 6 Nordeste 19 Nordeste 0 -- -- 53
2020-04-03 13:00:00 16.9 8 Este 18 Nordeste 0 -- -- 57
2020-04-03 12:00:00 15.1 10 Nordeste 19 Nordeste 0 -- -- 60
2020-04-03 11:00:00 13 13 Nordeste 20 Nordeste 0 -- -- 61
2020-04-03 10:00:00 11 5 Nordeste 10 Nordeste 0 -- -- 74
2020-04-03 09:00:00 8.3 2 Nordeste 7 Nordeste 0 -- -- 82
2020-04-03 08:00:00 7.3 4 Este 13 Nordeste 0 -- -- 82
2020-04-03 07:00:00 7.4 4 Este 9 Nordeste 0 -- -- 81
2020-04-03 06:00:00 8.3 6 Nordeste 9 Nordeste 0 -- -- 80
2020-04-03 05:00:00 7.8 3 Nordeste 6 Norte 0 -- -- 81
2020-04-03 04:00:00 8.8 3 Noroeste 9 Norte 0 -- -- 77
2020-04-03 03:00:00 8.9 6 Norte 9 Noroeste 0 -- -- 77
2020-04-03 02:00:00 9.3 5 Noroeste 14 Nordeste 0 -- -- 75
2020-04-03 01:00:00 10 4 Noroeste 12 Norte 0 -- -- 74
2020-04-03 00:00:00 11.6 10 Norte 14 Norte 0 -- -- 68
2020-04-02 23:00:00 12.4 8 Nordeste 12 Nordeste 0 -- -- 65
2020-04-02 22:00:00 12.7 8 Norte 17 Norte 0 -- -- 64
2020-04-02 21:00:00 14 10 Noroeste 18 Noroeste 0 -- -- 60
2020-04-02 20:00:00 16.3 9 Norte 14 Noroeste 0 -- -- 57
2020-04-02 19:00:00 16.7 8 Noroeste 21 Noroeste 0 -- -- 57
2020-04-02 18:00:00 17.3 7 Noroeste 18 Noroeste 0 -- -- 53
2020-04-02 17:00:00 16.7 15 Noroeste 25 Noroeste 0 -- -- 54
2020-04-02 16:00:00 17.4 12 Noroeste 24 Noroeste 0 -- -- 53
2020-04-02 15:00:00 17.1 11 Norte 21 Norte 0 -- -- 56
2020-04-02 14:00:00 15.7 11 Norte 22 Nordeste 0 -- -- 62
2020-04-02 13:00:00 14.5 12 Norte 21 Norte 0 -- -- 62
2020-04-02 12:00:00 13.5 10 Noroeste 17 Noroeste 0 -- -- 70
2020-04-02 11:00:00 11.5 4 Norte 10 Norte 0 -- -- 74
2020-04-02 10:00:00 8.6 2 Noroeste 7 Norte 0 -- -- 88
2020-04-02 09:00:00 6.2 4 Noroeste 8 Norte 0 -- -- 91
2020-04-02 08:00:00 6.2 6 Norte 12 Nordeste 0 -- -- 90
2020-04-02 07:00:00 6.3 5 Norte 9 Noroeste 0 -- -- 92
2020-04-02 06:00:00 6.7 0 Calma 6 Noroeste 0 -- -- 95
2020-04-02 05:00:00 6.8 5 Noroeste 8 Noroeste 0 -- -- 95
2020-04-02 04:00:00 6.8 4 Noroeste 12 Norte 0 -- -- 95
2020-04-02 03:00:00 6.5 8 Noroeste 13 Noroeste 0 -- -- 95
2020-04-02 02:00:00 6.5 7 Noroeste 13 Norte 0 -- -- 95
2020-04-02 01:00:00 6.4 9 Oeste 28 Sudoeste 2.4 -- -- 95
2020-04-02 00:00:00 7.2 18 Sudoeste 31 Sudoeste 0.4 -- -- 88
2020-04-01 23:00:00 9.2 4 Este 6 Este 0 -- -- 81
2020-04-01 22:00:00 9.2 5 Este 12 Sudeste 0 -- -- 78
2020-04-01 21:00:00 9.6 5 Sudeste 24 Sudeste 0 -- -- 73
2020-04-01 20:00:00 11.3 14 Sudeste 26 Sudeste 0 -- -- 66
2020-04-01 19:00:00 11.8 17 Sudeste 30 Sur 0 -- -- 68
2020-04-01 18:00:00 12.9 15 Este 23 Sudeste 0 -- -- 57
2020-04-01 17:00:00 12.9 14 Sudeste 25 Este 0 -- -- 59
2020-04-01 16:00:00 12.8 11 Este 24 Este 0 -- -- 63
2020-04-01 15:00:00 11.8 7 Sudeste 23 Este 0.2 -- -- 66
2020-04-01 14:00:00 10.5 7 Este 19 Este 0 -- -- 72
2020-04-01 13:00:00 10.7 7 Sudeste 15 Sudeste 0 -- -- 70
2020-04-01 12:00:00 8.2 5 Este 11 Este 0 -- -- 94
2020-04-01 11:00:00 6.4 4 Sudeste 9 Sudeste 0 -- -- 98
2020-04-01 10:00:00 4.4 2 Oeste 5 Oeste 0 -- -- 99
2020-04-01 09:00:00 2.5 2 Nordeste 4 Nordeste 0 -- -- 98
2020-04-01 08:00:00 1.8 2 Oeste 9 Este 0 -- -- 97
2020-04-01 07:00:00 3.1 5 Este 13 Este 0 -- -- 98
2020-04-01 06:00:00 2.9 4 Nordeste 6 Este 0 -- -- 98
2020-04-01 05:00:00 2.2 0 Calma 9 Nordeste 0 -- -- 97
2020-04-01 04:00:00 2.5 4 Nordeste 6 Nordeste 0 -- -- 97
2020-04-01 03:00:00 3.3 0 Calma 6 Nordeste 0 -- -- 96
2020-04-01 02:00:00 3.8 0 Calma 6 Sur 0 -- -- 95
2020-04-01 01:00:00 4.2 6 Sudoeste 10 Sudoeste 0 -- -- 95
2020-04-01 00:00:00 5.2 10 Sudoeste 16 Sudoeste 0 -- -- 94
2020-03-31 23:00:00 6.2 13 Sudoeste 28 Sudoeste 0 -- -- 92
2020-03-31 22:00:00 7.8 15 Sudoeste 33 Sudoeste 0 -- -- 94
2020-03-31 21:00:00 9.7 13 Sudoeste 21 Sudoeste 0 -- -- 92
2020-03-31 20:00:00 10.5 6 Sur 9 Sur 0 -- -- 91
2020-03-31 19:00:00 10.1 3 Oeste 7 Sudoeste 0.4 -- -- 95
2020-03-31 18:00:00 9.8 0 Calma 12 Nordeste 0.4 -- -- 93
2020-03-31 17:00:00 9.8 6 Este 13 Nordeste 0 -- -- 92
2020-03-31 16:00:00 8.8 4 Nordeste 15 Nordeste 0 -- -- 95
2020-03-31 15:00:00 7.8 9 Nordeste 19 Este 0 -- -- 96
2020-03-31 14:00:00 7 12 Nordeste 25 Nordeste 0.8 -- -- 96
2020-03-31 13:00:00 6.5 13 Nordeste 27 Nordeste 0.6 -- -- 95
2020-03-31 12:00:00 5.6 16 Nordeste 32 Nordeste 0.8 -- -- 95
2020-03-31 11:00:00 4.6 17 Nordeste 27 Nordeste 0.2 -- -- 94
2020-03-31 10:00:00 3.8 15 Nordeste 30 Nordeste 1 -- -- 94
2020-03-31 09:00:00 3.4 17 Nordeste 35 Norte 1.6 -- -- 94
2020-03-31 08:00:00 3.4 17 Norte 34 Nordeste 3 -- -- 93
2020-03-31 07:00:00 3.8 19 Nordeste 35 Nordeste 2.6 -- -- 94
2020-03-31 06:00:00 4 17 Nordeste 31 Este 0.8 -- -- 91
2020-03-31 05:00:00 4.2 17 Nordeste 31 Nordeste 0 -- -- 89
2020-03-31 04:00:00 4.2 21 Nordeste 40 Nordeste 0 -- -- 89
2020-03-31 03:00:00 4.2 24 Nordeste 40 Nordeste 0 -- -- 90
2020-03-31 02:00:00 4.7 19 Nordeste 42 Nordeste 0 -- -- 87
2020-03-31 01:00:00 4.7 22 Nordeste 41 Nordeste 0.2 -- -- 88
2020-03-31 00:00:00 4.9 26 Nordeste 43 Nordeste 0 -- -- 85
2020-03-30 23:00:00 5.1 26 Nordeste 44 Nordeste 0 -- -- 80
2020-03-30 22:00:00 5.2 19 Nordeste 42 Nordeste 0.2 -- -- 80
2020-03-30 21:00:00 5.7 19 Nordeste 53 Nordeste 0 -- -- 75
2020-03-30 20:00:00 6.5 16 Nordeste 35 Nordeste 0 -- -- 73
2020-03-30 19:00:00 7.8 23 Nordeste 37 Nordeste 0 -- -- 63
2020-03-30 18:00:00 8.9 18 Nordeste 34 Nordeste 0 -- -- 58
2020-03-30 17:00:00 9.8 20 Nordeste 32 Nordeste 0 -- -- 57
2020-03-30 16:00:00 11.1 16 Nordeste 28 Nordeste 0 -- -- 57
2020-03-30 15:00:00 11.6 13 Nordeste 27 Nordeste 0 -- -- 59
2020-03-30 14:00:00 11 15 Nordeste 32 Nordeste 0 -- -- 60
2020-03-30 13:00:00 11.2 16 Norte 34 Norte 0 -- -- 57
2020-03-30 12:00:00 11.1 19 Nordeste 31 Nordeste 0 -- -- 57
2020-03-30 11:00:00 10.7 13 Norte 29 Nordeste 0 -- -- 60
2020-03-30 10:00:00 10.3 19 Nordeste 30 Nordeste 0 -- -- 64
2020-03-30 09:00:00 8.7 7 Nordeste 15 Nordeste 0 -- -- 74
2020-03-30 08:00:00 8 4 Este 8 Este 0 -- -- 87
2020-03-30 07:00:00 8.5 8 Este 14 Este 0 -- -- 87
2020-03-30 06:00:00 8.9 0 Calma 4 Norte 0 -- -- 83
2020-03-30 05:00:00 9.2 3 Oeste 18 Norte 0 -- -- 81
2020-03-30 04:00:00 10.5 8 Sudoeste 12 Sudoeste 0 -- -- 77
2020-03-30 03:00:00 10.6 7 Sudoeste 11 Sur 0 -- -- 74
2020-03-30 02:00:00 11.1 5 Sudoeste 11 Sudoeste 0 -- -- 70
2020-03-30 01:00:00 11.3 2 Noroeste 12 Sudoeste 0 -- -- 69
2020-03-30 00:00:00 11.8 9 Sudoeste 11 Sudoeste 0 -- -- 67
2020-03-29 23:00:00 12.9 2 Oeste 6 Sudoeste 0 -- -- 63
2020-03-29 22:00:00 13.5 5 Sudoeste 11 Sudoeste 0 -- -- 62
2020-03-29 21:00:00 14 10 Sudoeste 27 Sudoeste 0 -- -- 62
2020-03-29 20:00:00 16.9 9 Sudoeste 12 Sur 0 -- -- 51
2020-03-29 19:00:00 18.4 8 Sur 12 Sur 0 -- -- 44
2020-03-29 18:00:00 18.8 8 Sur 14 Sur 0 -- -- 41
2020-03-29 17:00:00 19.7 5 Sudeste 10 Este 0 -- -- 39
2020-03-29 16:00:00 18.6 5 Este 15 Sudoeste 0 -- -- 43
2020-03-29 15:00:00 19.3 4 Sudoeste 13 Sudeste 0 -- -- 44
2020-03-29 14:00:00 17.7 4 Nordeste 13 Este 0 -- -- 44
2020-03-29 13:00:00 16.8 7 Este 13 Este 0 -- -- 49
2020-03-29 12:00:00 14.6 6 Este 14 Nordeste 0 -- -- 56
2020-03-29 11:00:00 12.9 6 Nordeste 12 Este 0 -- -- 60
2020-03-29 10:00:00 8.8 2 Norte 5 Noroeste 0 -- -- 79
2020-03-29 09:00:00 5.7 2 Norte 7 Este 0 -- -- 85
2020-03-29 08:00:00 6.6 3 Este 8 Este 0 -- -- 80
2020-03-29 07:00:00 7.7 5 Nordeste 13 Este 0 -- -- 76
2020-03-29 06:00:00 8.2 9 Este 10 Este 0 -- -- 74
2020-03-29 05:00:00 8.5 0 Calma 4 Nordeste 0 -- -- 73
2020-03-29 03:00:00 9.1 2 Norte 4 Norte 0 -- -- 75
2020-03-29 01:00:00 9.6 0 Calma 4 Norte 0 -- -- 73
2020-03-29 00:00:00 10.8 2 Oeste 3 Oeste 0 -- -- 68
2020-03-28 23:00:00 11.2 0 Calma 7 Nordeste 0 -- -- 64
2020-03-28 22:00:00 11.9 3 Noroeste 5 Noroeste 0 -- -- 63
2020-03-28 21:00:00 12.9 2 Noroeste 6 Sur 0 -- -- 56
2020-03-28 20:00:00 14 5 Sur 6 Sur 0 -- -- 54
2020-03-28 19:00:00 16 3 Sur 13 Sudeste 0 -- -- 50
2020-03-28 18:00:00 17.3 3 Sudeste 15 Este 0 -- -- 45
2020-03-28 17:00:00 17 5 Este 22 Este 0 -- -- 47
2020-03-28 16:00:00 17.2 13 Sudeste 28 Este 0 -- -- 46
2020-03-28 15:00:00 16.3 14 Este 32 Este 0 -- -- 47
2020-03-28 14:00:00 15.9 14 Este 35 Nordeste 0 -- -- 50
2020-03-28 13:00:00 14.5 18 Este 34 Este 0 -- -- 49
2020-03-28 12:00:00 12.7 22 Nordeste 40 Este 0 -- -- 53
2020-03-28 11:00:00 11.7 19 Nordeste 38 Nordeste 0 -- -- 59
2020-03-28 10:00:00 9.5 22 Nordeste 34 Nordeste 0 -- -- 64
2020-03-28 09:00:00 7.6 19 Nordeste 36 Nordeste 0 -- -- 72
2020-03-28 08:00:00 6.5 18 Nordeste 32 Nordeste 0 -- -- 75
2020-03-28 07:00:00 6.3 16 Nordeste 30 Nordeste 0 -- -- 76
2020-03-28 06:00:00 6.7 15 Nordeste 27 Nordeste 0 -- -- 75
2020-03-28 05:00:00 6.2 9 Nordeste 18 Nordeste 0 -- -- 77
2020-03-28 04:00:00 6.2 11 Nordeste 20 Nordeste 0 -- -- 77
2020-03-28 03:00:00 5.8 6 Nordeste 9 Nordeste 0 -- -- 76
2020-03-28 02:00:00 6.2 6 Nordeste 10 Nordeste 0 -- -- 74
2020-03-28 01:00:00 6.6 8 Nordeste 9 Nordeste 0 -- -- 71
2020-03-28 00:00:00 7.2 5 Norte 13 Nordeste 0 -- -- 67
2020-03-27 23:00:00 8.5 8 Nordeste 12 Este 0 -- -- 63
2020-03-27 22:00:00 9.2 8 Este 14 Nordeste 0 -- -- 59
2020-03-27 21:00:00 9.3 9 Este 13 Este 0 -- -- 60
2020-03-27 20:00:00 10.1 8 Este 25 Este 0 -- -- 58
2020-03-27 19:00:00 12.3 11 Nordeste 26 Nordeste 0 -- -- 50
2020-03-27 18:00:00 13.4 12 Nordeste 24 Nordeste 0 -- -- 49
2020-03-27 17:00:00 14.4 16 Nordeste 29 Nordeste 0 -- -- 43
2020-03-27 16:00:00 14.7 12 Nordeste 29 Nordeste 0 -- -- 46
2020-03-27 15:00:00 14.4 14 Nordeste 29 Este 0 -- -- 45
2020-03-27 14:00:00 14.2 16 Nordeste 32 Este 0 -- -- 47
2020-03-27 13:00:00 13.6 18 Este 32 Nordeste 0 -- -- 49
2020-03-27 12:00:00 12.8 16 Nordeste 31 Nordeste 0 -- -- 53
2020-03-27 11:00:00 11.3 18 Nordeste 33 Nordeste 0 -- -- 54
2020-03-27 10:00:00 10.2 15 Nordeste 27 Nordeste 0 -- -- 56
2020-03-27 09:00:00 8.8 9 Nordeste 23 Nordeste 0 -- -- 59
2020-03-27 08:00:00 6.2 8 Nordeste 18 Nordeste 0 -- -- 73
2020-03-27 07:00:00 5.2 8 Nordeste 10 Nordeste 0 -- -- 81
2020-03-27 06:00:00 5.6 5 Nordeste 10 Nordeste 0 -- -- 87
2020-03-27 05:00:00 5.1 2 Noroeste 6 Norte 0 -- -- 90
2020-03-27 04:00:00 6.3 2 Noroeste 6 Sudoeste 0 -- -- 86
2020-03-27 03:00:00 6.3 3 Sudoeste 9 Sudoeste 0 -- -- 85
2020-03-27 02:00:00 7.2 4 Sur 14 Sur 0 -- -- 83
2020-03-27 01:00:00 7.9 5 Sudoeste 17 Sudoeste 0 -- -- 79
2020-03-27 00:00:00 8.9 9 Sudoeste 20 Sudoeste 0 -- -- 73
2020-03-26 23:00:00 10.2 16 Sudoeste 25 Sudoeste 0 -- -- 69
2020-03-26 22:00:00 11.5 13 Sudoeste 26 Sudoeste 0 -- -- 68
2020-03-26 21:00:00 13 14 Sudoeste 24 Sudoeste 0 -- -- 64
2020-03-26 20:00:00 14.8 17 Sudoeste 31 Sudoeste 0 -- -- 59
2020-03-26 19:00:00 17.8 20 Sudoeste 32 Sudoeste 0 -- -- 46
2020-03-26 18:00:00 20.3 21 Sudoeste 30 Sudoeste 0 -- -- 38
2020-03-26 17:00:00 21.2 17 Sudoeste 31 Sudoeste 0 -- -- 37
2020-03-26 16:00:00 21.1 18 Sudoeste 30 Sudoeste 0 -- -- 39
2020-03-26 15:00:00 20.3 16 Sudoeste 31 Oeste 0 -- -- 41
2020-03-26 14:00:00 19.6 16 Sudoeste 30 Sudoeste 0 -- -- 45
2020-03-26 13:00:00 18.8 12 Oeste 24 Oeste 0 -- -- 48
2020-03-26 12:00:00 17.5 15 Noroeste 30 Noroeste 0 -- -- 35
2020-03-26 11:00:00 15.4 8 Oeste 14 Oeste 0 -- -- 61
2020-03-26 10:00:00 12.8 5 Sudoeste 11 Sudoeste 0 -- -- 74
2020-03-26 09:00:00 9.8 6 Sudoeste 17 Sudoeste 0 -- -- 84
2020-03-26 08:00:00 7.4 8 Sudoeste 15 Sudoeste 0 -- -- 89
2020-03-26 07:00:00 7.6 5 Sudoeste 14 Sudoeste 0 -- -- 87
2020-03-26 06:00:00 8.2 4 Sudoeste 12 Sudoeste 0 -- -- 83
2020-03-26 05:00:00 9.1 6 Sudoeste 12 Sudoeste 0 -- -- 80
2020-03-26 04:00:00 10.3 6 Sudoeste 13 Oeste 0 -- -- 72
2020-03-26 03:00:00 11.3 6 Oeste 15 Sudoeste 0 -- -- 70
2020-03-26 02:00:00 11.5 7 Oeste 19 Sudoeste 0 -- -- 69
2020-03-26 01:00:00 11.6 15 Sudoeste 24 Oeste 0 -- -- 76
2020-03-26 00:00:00 12.1 15 Sudoeste 23 Sudoeste 0 -- -- 79
2020-03-25 23:00:00 13 15 Sudoeste 22 Sudoeste 0 -- -- 75
2020-03-25 22:00:00 13.9 14 Sudoeste 20 Sudoeste 0 -- -- 72
2020-03-25 21:00:00 14.6 9 Oeste 17 Sudoeste 0 -- -- 71
2020-03-25 20:00:00 15.1 12 Sudoeste 17 Sudoeste 0 -- -- 67
2020-03-25 19:00:00 17 11 Sudoeste 27 Sudoeste 0 -- -- 59
2020-03-25 18:00:00 16.7 22 Sudoeste 32 Sudoeste 0 -- -- 61
2020-03-25 17:00:00 20.5 16 Sudoeste 23 Sudoeste 0 -- -- 48
2020-03-25 16:00:00 20 11 Sudoeste 20 Sudoeste 0 -- -- 54
2020-03-25 15:00:00 20.5 12 Sudoeste 19 Sudoeste 0 -- -- 50
2020-03-25 14:00:00 18.3 9 Sudoeste 19 Sudoeste 0 -- -- 58
2020-03-25 13:00:00 17.9 5 Sudoeste 15 Sudoeste 0 -- -- 60
2020-03-25 12:00:00 16.6 6 Sudoeste 14 Sudoeste 0 -- -- 60
2020-03-25 11:00:00 15.2 3 Este 8 Sur 0 -- -- 66
2020-03-25 10:00:00 13.7 3 Sudeste 8 Nordeste 0 -- -- 71
2020-03-25 09:00:00 11.2 3 Nordeste 6 Nordeste 0 -- -- 82
2020-03-25 08:00:00 7.9 2 Norte 4 Norte 0 -- -- 91
2020-03-25 07:00:00 8.2 0 Calma 5 Nordeste 0 -- -- 90
2020-03-25 06:00:00 8.9 2 Norte 3 Noroeste 0 -- -- 88
2020-03-25 05:00:00 10.1 0 Calma 4 Noroeste 0 -- -- 84
2020-03-25 04:00:00 10.4 2 Norte 4 Norte 0 -- -- 83
2020-03-25 03:00:00 11.2 0 Calma 3 Este 0 -- -- 76
2020-03-25 02:00:00 11.6 3 Sudeste 4 Sudeste 0 -- -- 75
2020-03-25 01:00:00 11.4 0 Calma 5 Norte 0 -- -- 75
2020-03-25 00:00:00 12 3 Norte 5 Noroeste 0 -- -- 74
2020-03-24 23:00:00 13 2 Oeste 8 Nordeste 0 -- -- 69
2020-03-24 22:00:00 13.7 7 Nordeste 17 Nordeste 0 -- -- 66
2020-03-24 21:00:00 14.2 10 Nordeste 18 Nordeste 0 -- -- 63
2020-03-24 20:00:00 14.7 9 Este 16 Este 0 -- -- 62
2020-03-24 19:00:00 16.5 9 Este 30 Este 0 -- -- 57
2020-03-24 18:00:00 17.7 15 Nordeste 38 Nordeste 0 -- -- 51
2020-03-24 17:00:00 18.3 21 Este 40 Este 0 -- -- 52
2020-03-24 16:00:00 18.1 25 Este 48 Este 0 -- -- 52
2020-03-24 15:00:00 17.5 25 Este 44 Este 0 -- -- 53
2020-03-24 14:00:00 16.7 28 Este 44 Nordeste 0 -- -- 54
2020-03-24 13:00:00 16.4 27 Este 53 Este 0 -- -- 55
2020-03-24 12:00:00 16.3 24 Este 47 Este 0 -- -- 58
2020-03-24 11:00:00 15.1 20 Nordeste 40 Nordeste 0 -- -- 63
2020-03-24 10:00:00 13.3 19 Nordeste 41 Nordeste 0 -- -- 68
2020-03-24 09:00:00 13.3 27 Nordeste 43 Nordeste 0 -- -- 65
2020-03-24 08:00:00 12.1 18 Nordeste 34 Nordeste 0 -- -- 69
2020-03-24 07:00:00 11.9 16 Nordeste 32 Nordeste 0 -- -- 71
2020-03-24 06:00:00 11.9 20 Nordeste 39 Este 0 -- -- 73
2020-03-24 05:00:00 11.6 17 Nordeste 34 Este 0 -- -- 75
2020-03-24 04:00:00 11.2 14 Nordeste 35 Nordeste 0 -- -- 77
2020-03-24 03:00:00 11.3 19 Nordeste 34 Este 0 -- -- 77
2020-03-24 02:00:00 11 18 Nordeste 39 Nordeste 0 -- -- 78
2020-03-24 01:00:00 11.2 14 Nordeste 27 Nordeste 0 -- -- 77
2020-03-24 00:00:00 11.1 12 Nordeste 24 Este 0 -- -- 77
2020-03-23 23:00:00 10.8 11 Nordeste 20 Nordeste 0 -- -- 78
2020-03-23 22:00:00 9.7 6 Norte 12 Norte 0 -- -- 86
2020-03-23 21:00:00 10 4 Norte 10 Nordeste 0 -- -- 85
2020-03-23 20:00:00 10.8 8 Norte 15 Norte 0 -- -- 81
2020-03-23 19:00:00 12.9 12 Norte 21 Norte 0 -- -- 71
2020-03-23 18:00:00 13.8 14 Norte 31 Nordeste 0 -- -- 66
2020-03-23 17:00:00 14.8 18 Nordeste 39 Este 0 -- -- 62
2020-03-23 16:00:00 16.7 18 Nordeste 31 Nordeste 0 -- -- 58
2020-03-23 15:00:00 16.4 16 Este 26 Este 0 -- -- 61
2020-03-23 14:00:00 16.1 13 Este 23 Este 0 -- -- 60
2020-03-23 13:00:00 15.3 14 Este 27 Este 0 -- -- 65
2020-03-23 12:00:00 14 16 Nordeste 26 Nordeste 0 -- -- 72
2020-03-23 11:00:00 13.4 11 Nordeste 25 Nordeste 0 -- -- 77
2020-03-23 10:00:00 11.7 10 Nordeste 21 Nordeste 0 -- -- 81
2020-03-23 09:00:00 9.9 3 Nordeste 6 Norte 0 -- -- 93
2020-03-23 08:00:00 8.8 4 Norte 9 Nordeste 0 -- -- 94
2020-03-23 07:00:00 8.8 6 Nordeste 12 Nordeste 0 -- -- 94
2020-03-23 06:00:00 8.8 6 Nordeste 13 Nordeste 0 -- -- 96
2020-03-23 05:00:00 8.9 8 Nordeste 12 Nordeste 0 -- -- 97
2020-03-23 04:00:00 8.3 8 Este 11 Este 0.2 -- -- 96
2020-03-23 03:00:00 8.9 3 Nordeste 5 Este 0 -- -- 95
2020-03-23 02:00:00 9.2 0 Calma 4 Norte 0 -- -- 95
2020-03-23 01:00:00 9.5 2 Oeste 6 Oeste 0 -- -- 95
2020-03-23 00:00:00 10.1 0 Calma 10 Sudeste 0 -- -- 94
2020-03-22 23:00:00 10.4 6 Sudeste 15 Nordeste 0 -- -- 93
2020-03-22 22:00:00 10.2 7 Norte 21 Sudeste 0 -- -- 91
2020-03-22 21:00:00 10.6 14 Sudeste 37 Este 1.6 -- -- 90
2020-03-22 20:00:00 13.8 7 Sudoeste 11 Sudoeste 0 -- -- 69
2020-03-22 19:00:00 14.9 6 Oeste 12 Oeste 0 -- -- 61
2020-03-22 18:00:00 17 2 Sudoeste 9 Oeste 0 -- -- 51
2020-03-22 17:00:00 17.6 5 Sudoeste 12 Sur 0 -- -- 50
2020-03-22 16:00:00 16.7 4 Norte 11 Noroeste 0 -- -- 55
2020-03-22 15:00:00 15.3 8 Norte 15 Norte 0 -- -- 57
2020-03-22 14:00:00 14.1 6 Nordeste 17 Nordeste 0 -- -- 66
2020-03-22 13:00:00 13.3 7 Nordeste 15 Nordeste 0 -- -- 72
2020-03-22 12:00:00 13 4 Norte 19 Nordeste 0 -- -- 69
2020-03-22 11:00:00 11.7 8 Este 17 Nordeste 0 -- -- 76
2020-03-22 10:00:00 10.5 5 Nordeste 10 Nordeste 0 -- -- 81
2020-03-22 09:00:00 9.3 4 Nordeste 8 Nordeste 0 -- -- 87
2020-03-22 08:00:00 5.7 0 Calma 4 Oeste 0 -- -- 93
2020-03-22 07:00:00 5.5 0 Calma 8 Noroeste 0 -- -- 94
2020-03-22 06:00:00 5.6 3 Norte 12 Norte 0 -- -- 94
2020-03-22 05:00:00 6.3 3 Noroeste 18 Nordeste 0 -- -- 91
2020-03-22 04:00:00 6.3 3 Norte 8 Norte 0 -- -- 94
2020-03-22 03:00:00 6.5 4 Norte 7 Norte 0 -- -- 94
2020-03-22 02:00:00 7.2 3 Noroeste 6 Noroeste 0 -- -- 93
2020-03-22 01:00:00 8.1 3 Noroeste 6 Noroeste 0 -- -- 93
2020-03-22 00:00:00 8.5 5 Este 7 Este 0 -- -- 93
2020-03-21 23:00:00 8.7 3 Este 7 Este 0 -- -- 91
2020-03-21 22:00:00 8.5 3 Norte 18 Sur 0 -- -- 89
2020-03-21 21:00:00 8.9 11 Sur 17 Sudeste 0 -- -- 84
2020-03-21 20:00:00 10.3 9 Sudeste 21 Sudeste 0 -- -- 79
2020-03-21 19:00:00 10.5 6 Norte 20 Nordeste 0 -- -- 78
2020-03-21 18:00:00 12 15 Nordeste 24 Nordeste 0 -- -- 73
2020-03-21 17:00:00 11.7 15 Nordeste 25 Norte 0 -- -- 77
2020-03-21 16:00:00 10.5 5 Norte 26 Sudeste 1.4 -- -- 86
2020-03-21 15:00:00 11.8 6 Este 19 Nordeste 0 -- -- 74
2020-03-21 14:00:00 12.2 6 Nordeste 19 Nordeste 0 -- -- 74
2020-03-21 13:00:00 10.2 9 Nordeste 17 Este 0 -- -- 91
2020-03-21 12:00:00 9.4 5 Nordeste 8 Nordeste 0 -- -- 90
2020-03-21 11:00:00 8.3 4 Norte 10 Norte 1.2 -- -- 96
2020-03-21 10:00:00 8 4 Norte 6 Oeste 0.2 -- -- 96
2020-03-21 09:00:00 7.9 5 Oeste 14 Sudeste 0.2 -- -- 96
2020-03-21 08:00:00 8.2 9 Sudeste 19 Sudeste 0.2 -- -- 95
2020-03-21 07:00:00 8.6 12 Este 23 Nordeste 0.6 -- -- 97
2020-03-21 06:00:00 8.6 8 Nordeste 19 Nordeste 0.6 -- -- 97
2020-03-21 05:00:00 8.7 10 Este 17 Este 1.4 -- -- 98
2020-03-21 04:00:00 8.6 4 Norte 9 Nordeste 3.2 -- -- 97
2020-03-21 03:00:00 8.9 4 Nordeste 8 Nordeste 4 -- -- 97
2020-03-21 02:00:00 9.2 5 Sudoeste 17 Sudoeste 4.8 -- -- 97
2020-03-21 01:00:00 9.5 10 Sudoeste 17 Sudoeste 3.6 -- -- 97
2020-03-21 00:00:00 9.7 3 Sudoeste 23 Sudoeste 4 -- -- 96
2020-03-20 23:00:00 10.7 7 Sudoeste 14 Sudoeste 4.8 -- -- 97
2020-03-20 22:00:00 10.8 2 Norte 5 Norte 0.4 -- -- 97
2020-03-20 21:00:00 10.8 3 Nordeste 10 Nordeste 0.6 -- -- 97
2020-03-20 20:00:00 10.9 0 Calma 14 Este 2.4 -- -- 97
2020-03-20 19:00:00 11.2 10 Este 19 Este 4.2 -- -- 97
2020-03-20 18:00:00 11.4 10 Este 24 Este 2.4 -- -- 97
2020-03-20 17:00:00 11.4 14 Este 23 Este 2 -- -- 97
2020-03-20 16:00:00 11 10 Este 25 Nordeste 0.4 -- -- 96
2020-03-20 15:00:00 11.2 15 Nordeste 23 Nordeste 0.6 -- -- 95
2020-03-20 14:00:00 11.1 9 Nordeste 21 Nordeste 1 -- -- 95
2020-03-20 13:00:00 10.5 9 Nordeste 25 Este 1.2 -- -- 97
2020-03-20 12:00:00 10 12 Nordeste 28 Este 2.2 -- -- 96
2020-03-20 11:00:00 10.2 14 Este 26 Nordeste 5 -- -- 96
2020-03-20 10:00:00 10.3 9 Este 19 Este 5 -- -- 95
2020-03-20 09:00:00 10.4 6 Nordeste 19 Nordeste 4.6 -- -- 93
2020-03-20 08:00:00 10.5 4 Norte 9 Nordeste 0.6 -- -- 92
2020-03-20 07:00:00 10.8 4 Nordeste 10 Nordeste 0.2 -- -- 88
2020-03-20 06:00:00 11.4 8 Este 21 Este 0 -- -- 80
2020-03-20 05:00:00 11.8 9 Este 19 Este 0 -- -- 77
2020-03-20 04:00:00 12.2 12 Este 21 Este 0 -- -- 75
2020-03-20 03:00:00 12.2 9 Este 14 Este 0 -- -- 73
2020-03-20 02:00:00 11.7 0 Calma 10 Nordeste 0 -- -- 72
2020-03-20 01:00:00 12.6 8 Este 16 Nordeste 0 -- -- 69
2020-03-20 00:00:00 13.1 7 Nordeste 12 Nordeste 0 -- -- 66
2020-03-19 23:00:00 13.4 9 Nordeste 17 Este 0 -- -- 65
2020-03-19 22:00:00 14 12 Este 18 Nordeste 0 -- -- 62
2020-03-19 21:00:00 14.1 12 Este 18 Este 0 -- -- 63
2020-03-19 20:00:00 14.4 10 Este 21 Este 0 -- -- 63
2020-03-19 19:00:00 15.1 13 Este 24 Nordeste 0 -- -- 60
2020-03-19 18:00:00 16.3 15 Nordeste 31 Nordeste 0 -- -- 54
2020-03-19 17:00:00 16.7 18 Nordeste 30 Nordeste 0 -- -- 50
2020-03-19 16:00:00 17 17 Este 32 Nordeste 0 -- -- 51
2020-03-19 15:00:00 16.4 18 Nordeste 33 Este 0 -- -- 53
2020-03-19 14:00:00 16.2 15 Este 31 Este 0 -- -- 55
2020-03-19 13:00:00 15.8 18 Nordeste 34 Este 0 -- -- 55
2020-03-19 12:00:00 14.9 23 Nordeste 38 Nordeste 0 -- -- 57
2020-03-19 11:00:00 13.3 13 Nordeste 24 Nordeste 0 -- -- 62
2020-03-19 10:00:00 12.6 10 Nordeste 29 Nordeste 0 -- -- 61
2020-03-19 09:00:00 12 15 Nordeste 28 Nordeste 0 -- -- 57
2020-03-19 08:00:00 10.8 13 Este 24 Nordeste 0 -- -- 62
2020-03-19 07:00:00 11 9 Nordeste 21 Nordeste 0 -- -- 64
2020-03-19 06:00:00 11.7 14 Este 23 Este 0 -- -- 64
2020-03-19 05:00:00 11.7 15 Este 20 Este 0 -- -- 67
2020-03-19 04:00:00 12.7 9 Este 33 Nordeste 0 -- -- 65
2020-03-19 03:00:00 14.1 21 Nordeste 31 Nordeste 0 -- -- 59
2020-03-19 02:00:00 14.1 13 Nordeste 23 Nordeste 0 -- -- 64
2020-03-19 01:00:00 14.6 13 Este 22 Este 0 -- -- 62
2020-03-19 00:00:00 15.5 15 Nordeste 28 Nordeste 0 -- -- 57
2020-03-18 23:00:00 15.3 12 Nordeste 25 Nordeste 0 -- -- 56
2020-03-18 22:00:00 15.6 16 Nordeste 28 Nordeste 0 -- -- 58
2020-03-18 21:00:00 15.6 14 Este 27 Nordeste 0 -- -- 59
2020-03-18 20:00:00 15.9 16 Nordeste 27 Nordeste 0 -- -- 56
2020-03-18 19:00:00 16.2 12 Nordeste 30 Este 0 -- -- 55
2020-03-18 18:00:00 16.6 16 Nordeste 37 Este 0 -- -- 54
2020-03-18 17:00:00 16.8 19 Este 33 Este 0 -- -- 52
2020-03-18 16:00:00 18.4 19 Este 38 Este 0 -- -- 49
2020-03-18 15:00:00 19.1 21 Nordeste 42 Este 0 -- -- 45
2020-03-18 14:00:00 19.1 26 Nordeste 44 Este 0 -- -- 44
2020-03-18 13:00:00 18.3 27 Nordeste 50 Nordeste 0 -- -- 47
2020-03-18 12:00:00 16.9 29 Nordeste 47 Nordeste 0 -- -- 53
2020-03-18 11:00:00 16.2 21 Nordeste 40 Este 0 -- -- 57
2020-03-18 10:00:00 14.5 24 Nordeste 40 Nordeste 0 -- -- 62
2020-03-18 09:00:00 12.7 19 Nordeste 36 Este 0 -- -- 71
2020-03-18 08:00:00 12.2 24 Nordeste 39 Nordeste 0 -- -- 73
2020-03-18 07:00:00 12.2 21 Nordeste 37 Nordeste 0 -- -- 73
2020-03-18 06:00:00 12.8 23 Nordeste 46 Nordeste 0 -- -- 71
2020-03-18 05:00:00 13.2 24 Nordeste 40 Nordeste 0 -- -- 72
2020-03-18 04:00:00 13.9 26 Nordeste 39 Nordeste 0 -- -- 67
2020-03-18 03:00:00 14.4 23 Nordeste 40 Nordeste 0 -- -- 68
2020-03-18 02:00:00 14.5 24 Nordeste 45 Nordeste 0 -- -- 67
2020-03-18 01:00:00 14.2 24 Nordeste 43 Nordeste 0 -- -- 69
2020-03-18 00:00:00 14.7 20 Nordeste 43 Nordeste 0 -- -- 67
2020-03-17 23:00:00 13.8 14 Nordeste 23 Nordeste 0 -- -- 65
2020-03-17 22:00:00 13.2 11 Nordeste 17 Nordeste 0 -- -- 59
2020-03-17 21:00:00 12.4 9 Norte 12 Norte 0 -- -- 66
2020-03-17 20:00:00 13.8 7 Norte 17 Nordeste 0 -- -- 58
2020-03-17 19:00:00 15.5 11 Nordeste 33 Nordeste 0 -- -- 53
2020-03-17 18:00:00 16.3 18 Nordeste 33 Nordeste 0 -- -- 48
2020-03-17 17:00:00 16.8 19 Nordeste 37 Nordeste 0 -- -- 45
2020-03-17 16:00:00 16 21 Nordeste 45 Este 0 -- -- 48
2020-03-17 15:00:00 15.5 23 Nordeste 46 Nordeste 0 -- -- 53
2020-03-17 14:00:00 14.9 28 Nordeste 44 Nordeste 0 -- -- 55
2020-03-17 13:00:00 13.7 21 Nordeste 48 Nordeste 0 -- -- 63
2020-03-17 12:00:00 11.9 28 Nordeste 49 Nordeste 0 -- -- 67
2020-03-17 11:00:00 10.6 19 Nordeste 36 Nordeste 0 -- -- 69
2020-03-17 10:00:00 9.2 13 Nordeste 22 Nordeste 0 -- -- 71
2020-03-17 09:00:00 6.8 4 Norte 18 Nordeste 0 -- -- 78
2020-03-17 08:00:00 4.1 6 Nordeste 11 Nordeste 0 -- -- 86
2020-03-17 07:00:00 4.4 8 Nordeste 14 Nordeste 0 -- -- 86
2020-03-17 06:00:00 3.9 9 Norte 15 Norte 0 -- -- 89
2020-03-17 05:00:00 4 9 Norte 12 Norte 0 -- -- 89
2020-03-17 04:00:00 3.8 9 Norte 16 Norte 0 -- -- 90
2020-03-17 03:00:00 4.9 8 Nordeste 13 Nordeste 0 -- -- 90
2020-03-17 02:00:00 5.2 8 Nordeste 15 Norte 0 -- -- 90
2020-03-17 01:00:00 5.7 6 Nordeste 26 Nordeste 0 -- -- 90
2020-03-17 00:00:00 6.4 15 Nordeste 27 Nordeste 1.2 -- -- 89
2020-03-16 23:00:00 7 10 Nordeste 28 Norte 0.8 -- -- 89
2020-03-16 22:00:00 7.2 8 Norte 31 Norte 0 -- -- 87
2020-03-16 21:00:00 7.7 19 Norte 44 Norte 0.6 -- -- 81
2020-03-16 20:00:00 7.4 20 Norte 40 Norte 0.4 -- -- 82
2020-03-16 19:00:00 9.8 26 Noroeste 44 Noroeste 0 -- -- 63
2020-03-16 18:00:00 9.8 22 Norte 31 Norte 0 -- -- 66
2020-03-16 17:00:00 9.5 14 Noroeste 35 Noroeste 0 -- -- 66
2020-03-16 16:00:00 9.6 15 Norte 35 Norte 0 -- -- 66
2020-03-16 15:00:00 10.1 18 Norte 36 Norte 0.2 -- -- 58
2020-03-16 14:00:00 11 25 Norte 38 Noroeste 0 -- -- 47
2020-03-16 13:00:00 11.1 18 Noroeste 31 Noroeste 0 -- -- 49
2020-03-16 12:00:00 8.8 17 Noroeste 39 Noroeste 0 -- -- 58
2020-03-16 11:00:00 8.9 28 Noroeste 45 Noroeste 0 -- -- 56
2020-03-16 10:00:00 7.5 26 Noroeste 46 Noroeste 0 -- -- 60
2020-03-16 09:00:00 6.5 17 Noroeste 39 Noroeste 0 -- -- 63
2020-03-16 08:00:00 5.9 24 Noroeste 38 Noroeste 0 -- -- 63
2020-03-16 07:00:00 5.7 22 Noroeste 40 Noroeste 0 -- -- 64
2020-03-16 06:00:00 5.7 23 Oeste 35 Oeste 0 -- -- 64
2020-03-16 05:00:00 4.3 8 Oeste 20 Noroeste 0 -- -- 69
2020-03-16 04:00:00 5.2 14 Noroeste 27 Oeste 0 -- -- 67
2020-03-16 03:00:00 5.7 17 Oeste 37 Oeste 0 -- -- 65
2020-03-16 02:00:00 5.4 13 Oeste 29 Oeste 0 -- -- 66
2020-03-16 01:00:00 5.9 13 Oeste 31 Noroeste 0 -- -- 66
2020-03-16 00:00:00 6.6 19 Oeste 33 Oeste 0 -- -- 63
2020-03-15 23:00:00 7.5 16 Noroeste 38 Noroeste 0 -- -- 59
2020-03-15 22:00:00 8.9 20 Noroeste 34 Noroeste 0 -- -- 62
2020-03-15 21:00:00 9.7 16 Oeste 49 Oeste 0 -- -- 66
2020-03-15 20:00:00 12.3 22 Oeste 41 Sudoeste 0 -- -- 66
2020-03-15 19:00:00 14.9 23 Sudoeste 42 Oeste 0 -- -- 49
2020-03-15 18:00:00 16.2 21 Oeste 43 Oeste 0 -- -- 46
2020-03-15 17:00:00 18.4 24 Oeste 40 Sudoeste 0 -- -- 45
2020-03-15 16:00:00 19.7 23 Sudoeste 48 Sudoeste 0 -- -- 54
2020-03-15 15:00:00 20.6 28 Sudoeste 43 Sudoeste 0 -- -- 54
2020-03-15 14:00:00 20.6 21 Sudoeste 33 Sudoeste 0 -- -- 52
2020-03-15 13:00:00 19.6 16 Sudoeste 25 Sudoeste 0 -- -- 59
2020-03-15 12:00:00 17.3 13 Sur 19 Sudoeste 0 -- -- 64
2020-03-15 11:00:00 15.5 11 Sur 16 Sur 0 -- -- 69
2020-03-15 10:00:00 12.9 0 Calma 3 Noroeste 0 -- -- 75
2020-03-15 09:00:00 10.9 0 Calma 6 Este 0 -- -- 73
2020-03-15 08:00:00 8.5 0 Calma 4 Este 0 -- -- 79
2020-03-15 07:00:00 9.2 0 Calma 3 Nordeste 0 -- -- 75
2020-03-15 06:00:00 8.7 0 Calma 4 Norte 0 -- -- 78
2020-03-15 05:00:00 10.3 0 Calma 8 Sudoeste 0 -- -- 72
2020-03-15 04:00:00 10.5 0 Calma 4 Noroeste 0 -- -- 74
2020-03-15 03:00:00 13 2 Sur 8 Sur 0 -- -- 59
2020-03-15 02:00:00 12.7 5 Sudeste 8 Sur 0 -- -- 58
2020-03-15 01:00:00 13.9 5 Nordeste 8 Nordeste 0 -- -- 64
2020-03-15 00:00:00 14.8 0 Calma 5 Nordeste 0 -- -- 63
2020-03-14 23:00:00 15 3 Nordeste 8 Norte 0 -- -- 62
2020-03-14 22:00:00 15.6 0 Calma 10 Sudoeste 0 -- -- 63
2020-03-14 21:00:00 17.6 9 Sudoeste 11 Sur 0 -- -- 55
2020-03-14 20:00:00 19.1 6 Sur 8 Sur 0 -- -- 50
2020-03-14 19:00:00 21.8 4 Sur 10 Sudeste 0 -- -- 45
2020-03-14 18:00:00 23.5 4 Sudeste 9 Este 0 -- -- 42
2020-03-14 17:00:00 23.7 4 Oeste 10 Oeste 0 -- -- 45
2020-03-14 16:00:00 23.8 4 Sur 12 Sudoeste 0 -- -- 46
2020-03-14 15:00:00 22.8 4 Este 12 Nordeste 0 -- -- 53
2020-03-14 14:00:00 21.5 5 Nordeste 14 Este 0 -- -- 54
2020-03-14 13:00:00 20.8 9 Este 15 Este 0 -- -- 57
2020-03-14 12:00:00 19.2 7 Nordeste 15 Nordeste 0 -- -- 54
2020-03-14 11:00:00 18 5 Nordeste 13 Nordeste 0 -- -- 54
2020-03-14 10:00:00 15.3 2 Oeste 5 Sudeste 0 -- -- 66
2020-03-14 09:00:00 12.6 0 Calma 10 Nordeste 0 -- -- 70
2020-03-14 08:00:00 10.7 7 Norte 10 Norte 0 -- -- 74
2020-03-14 07:00:00 10.9 3 Noroeste 8 Noroeste 0 -- -- 75
2020-03-14 06:00:00 11.4 3 Oeste 6 Sudoeste 0 -- -- 74
2020-03-14 05:00:00 12.3 3 Noroeste 7 Noroeste 0 -- -- 69
2020-03-14 04:00:00 12.2 4 Noroeste 10 Norte 0 -- -- 72
2020-03-14 03:00:00 12.5 6 Norte 10 Noroeste 0 -- -- 73
2020-03-14 02:00:00 12.8 5 Norte 10 Noroeste 0 -- -- 74
2020-03-14 01:00:00 13.3 5 Norte 10 Norte 0 -- -- 75
2020-03-14 00:00:00 13.5 4 Noroeste 7 Noroeste 0 -- -- 78
2020-03-13 23:00:00 14.5 5 Noroeste 8 Noroeste 0 -- -- 74
2020-03-13 22:00:00 15.5 4 Norte 11 Norte 0 -- -- 70
2020-03-13 21:00:00 15.8 4 Norte 9 Norte 0 -- -- 71
2020-03-13 20:00:00 17.1 7 Nordeste 12 Noroeste 0 -- -- 67
2020-03-13 19:00:00 20 11 Noroeste 16 Norte 0 -- -- 60
2020-03-13 18:00:00 21.6 8 Sudoeste 19 Sudoeste 0 -- -- 58
2020-03-13 17:00:00 21.8 12 Sudoeste 18 Sudoeste 0 -- -- 59
2020-03-13 16:00:00 22.1 9 Sudoeste 19 Sudoeste 0 -- -- 62
2020-03-13 15:00:00 21.6 7 Sur 18 Sudoeste 0 -- -- 61
2020-03-13 14:00:00 20.2 4 Sudoeste 13 Sudoeste 0 -- -- 62
2020-03-13 13:00:00 18.2 4 Norte 12 Norte 0 -- -- 67
2020-03-13 12:00:00 17.2 3 Nordeste 6 Nordeste 0 -- -- 72
2020-03-13 11:00:00 14.3 2 Norte 5 Nordeste 0 -- -- 81
2020-03-13 10:00:00 11.1 0 Calma 4 Sur 0 -- -- 96
2020-03-13 09:00:00 9.2 0 Calma 3 Sur 0 -- -- 96
2020-03-13 08:00:00 8.4 0 Calma 4 Norte 0 -- -- 95
2020-03-13 07:00:00 9.3 3 Oeste 12 Sudoeste 0 -- -- 94
2020-03-13 06:00:00 10 6 Sudoeste 13 Sudoeste 0 -- -- 94
2020-03-13 05:00:00 11 5 Sur 9 Sur 0 -- -- 93
2020-03-13 04:00:00 11.7 5 Sudoeste 11 Sudoeste 0 -- -- 91
2020-03-13 03:00:00 12.5 6 Sudoeste 10 Oeste 0 -- -- 88
2020-03-13 02:00:00 13.5 5 Sudoeste 13 Sudoeste 0 -- -- 83
2020-03-13 01:00:00 14.6 6 Sudoeste 12 Sudoeste 0 -- -- 79
2020-03-13 00:00:00 15.4 5 Oeste 8 Oeste 0 -- -- 72
2020-03-12 23:00:00 16.1 0 Calma 10 Sudoeste 0 -- -- 68
2020-03-12 22:00:00 17 9 Sudoeste 13 Sudoeste 0 -- -- 66
2020-03-12 21:00:00 17.9 4 Oeste 15 Sudoeste 0 -- -- 63
2020-03-12 20:00:00 19.1 10 Sudoeste 14 Sudoeste 0 -- -- 60
2020-03-12 19:00:00 21.8 3 Sudoeste 10 Sudoeste 0 -- -- 55
2020-03-12 18:00:00 23 5 Sudeste 9 Sur 0 -- -- 47
2020-03-12 17:00:00 24.1 7 Sur 12 Sudoeste 0 -- -- 41
2020-03-12 16:00:00 24.6 7 Sur -- -- -- -- -- 44
2020-03-12 15:00:00 23.8 3 Sur 9 Norte 0 -- -- 47
2020-03-12 14:00:00 23.2 4 Norte 9 Norte 0 -- -- 48
2020-03-12 13:00:00 22.2 2 Sudeste 9 Nordeste 0 -- -- 56
2020-03-12 12:00:00 20.4 5 Nordeste 10 Nordeste 0 -- -- 61
2020-03-12 11:00:00 19.1 6 Nordeste 10 Norte 0 -- -- 66
2020-03-12 10:00:00 16.8 4 Nordeste 9 Nordeste 0 -- -- 74
2020-03-12 09:00:00 13.6 0 Calma 6 Norte 0 -- -- 86
2020-03-12 08:00:00 12.2 7 Nordeste 10 Sudeste 0 -- -- 89
2020-03-12 07:00:00 12.5 10 Sudeste 12 Sudeste 0 -- -- 87
2020-03-12 06:00:00 13 5 Este 13 Este 0 -- -- 83
2020-03-12 05:00:00 14.1 12 Este 14 Este 0 -- -- 79
2020-03-12 04:00:00 14.6 2 Nordeste 6 Nordeste 0 -- -- 78
2020-03-12 03:00:00 15.4 6 Nordeste 8 Nordeste 0 -- -- 74
2020-03-12 02:00:00 15.9 0 Calma 8 Este 0 -- -- 74
2020-03-12 01:00:00 16.5 6 Este 8 Este 0 -- -- 73
2020-03-12 00:00:00 16.9 3 Nordeste 6 Norte 0 -- -- 70
2020-03-11 23:00:00 17.3 3 Norte 4 Norte 0 -- -- 69
2020-03-11 22:00:00 17.7 0 Calma 5 Noroeste 0 -- -- 70
2020-03-11 21:00:00 18.6 3 Norte 8 Nordeste 0 -- -- 65
2020-03-11 20:00:00 19.6 5 Nordeste 7 Norte 0 -- -- 61
2020-03-11 19:00:00 20.5 4 Norte 7 Nordeste 0 -- -- 55
2020-03-11 18:00:00 21.7 3 Nordeste 6 Nordeste 0 -- -- 55
2020-03-11 17:00:00 22.5 3 Este 6 Este 0 -- -- 54
2020-03-11 16:00:00 22.9 3 Nordeste 7 Este 0 -- -- 50
2020-03-11 15:00:00 22.9 4 Este 10 Este 0 -- -- 49
2020-03-11 14:00:00 23.2 5 Sudeste 10 Este 0 -- -- 51
2020-03-11 13:00:00 21.2 4 Nordeste 14 Nordeste 0 -- -- 56
2020-03-11 12:00:00 19.6 4 Nordeste 9 Nordeste 0 -- -- 61
2020-03-11 11:00:00 17 5 Nordeste 10 Nordeste 0 -- -- 65
2020-03-11 10:00:00 14.9 4 Nordeste 8 Este 0 -- -- 74
2020-03-11 09:00:00 10.8 0 Calma 4 Noroeste 0 -- -- 85
2020-03-11 08:00:00 9.3 0 Calma 5 Sudeste 0 -- -- 86
2020-03-11 07:00:00 10.5 0 Calma 10 Este 0 -- -- 82
2020-03-11 06:00:00 10.8 8 Este 11 Este 0 -- -- 84
2020-03-11 05:00:00 11 0 Calma 3 Norte 0 -- -- 82
2020-03-11 04:00:00 11.4 2 Noroeste 4 Noroeste 0 -- -- 79
2020-03-11 03:00:00 12.3 2 Noroeste 3 Noroeste -- -- -- 76
2020-03-11 02:00:00 12.5 2 Noroeste 3 Noroeste 0 -- -- 75
2020-03-11 01:00:00 14 0 Calma 2 Norte 0 -- -- 67
2020-03-11 00:00:00 15.6 0 Calma 4 Nordeste 0 -- -- 59